Rio Vista Municipal (O88)
Rio Vista, CA
Field Elevation: 22
Lat: 38°11.60N  Long: 121°42.22W
CTAF/Unicom Freq: 122.7250
   
     For Weather-by-Phone, call (707) 374-5396
Weather Advisories
2018-06-25   19:15 Z
Altimeter 29.94" Hg
Wind 210° @ 12 KT
Gusts 16 KT
Visibility 10 SM
Ceiling CLR
Temperature 22° C (72° F)
Dewpoint 12° C (54° F)
Relative Humidity 55%
Density Altitude --
Condensation Altitude 4,700 feet
Wind and Runways
Indicated Runway = 25
Headwind = 9 kt
Crosswind = 8 kt
History
 
 
 
More Info
All DigiWx sites map
NOAA Forecast
 
Airport IQ 5010
(DUC) Stack Farm
(CA37) Dominican
 
about DigiWx
 
FAA Disclaimer: The data displayed is for advisory purposes only and is not to be used for flight planning or operations. For official data, please call (707) 374-5396 to hear the current automated AWOS voice message.
  METAR O88 251915Z AUTO 21012G16KT VIS 10 SM CLR 22/12 A2994